sensor_id;sensor_type;location;lat;lon;timestamp;pressure;altitude;pressure_sealevel;temperature;humidity
49827;BME280;35715;51.570;6.036;2022-08-06T00:00:00;102433.88;;;16.97;57.19
49827;BME280;35715;51.570;6.036;2022-08-06T00:02:28;102429.28;;;16.93;57.23
49827;BME280;35715;51.570;6.036;2022-08-06T00:04:54;102432.47;;;16.89;57.66
49827;BME280;35715;51.570;6.036;2022-08-06T00:07:21;102432.13;;;16.84;57.36
49827;BME280;35715;51.570;6.036;2022-08-06T00:09:46;102436.22;;;16.80;57.88
49827;BME280;35715;51.570;6.036;2022-08-06T00:12:12;102435.22;;;16.78;57.94
49827;BME280;35715;51.570;6.036;2022-08-06T00:14:38;102443.81;;;16.77;57.81
49827;BME280;35715;51.570;6.036;2022-08-06T00:17:04;102435.00;;;16.75;57.85
49827;BME280;35715;51.570;6.036;2022-08-06T00:19:29;102440.13;;;16.74;57.99
49827;BME280;35715;51.570;6.036;2022-08-06T00:22:14;102434.59;;;16.69;58.10
49827;BME280;35715;51.570;6.036;2022-08-06T00:24:40;102449.22;;;16.67;58.18
49827;BME280;35715;51.570;6.036;2022-08-06T00:27:24;102443.59;;;16.61;58.24
49827;BME280;35715;51.570;6.036;2022-08-06T00:29:49;102434.44;;;16.54;58.39
49827;BME280;35715;51.570;6.036;2022-08-06T00:32:15;102439.34;;;16.49;58.32
49827;BME280;35715;51.570;6.036;2022-08-06T00:34:41;102434.50;;;16.42;58.78
49827;BME280;35715;51.570;6.036;2022-08-06T00:37:06;102437.50;;;16.35;58.59
49827;BME280;35715;51.570;6.036;2022-08-06T00:39:31;102449.28;;;16.30;58.84
49827;BME280;35715;51.570;6.036;2022-08-06T00:41:57;102449.84;;;16.26;58.88
49827;BME280;35715;51.570;6.036;2022-08-06T00:44:22;102446.81;;;16.20;59.33
49827;BME280;35715;51.570;6.036;2022-08-06T00:46:54;102442.88;;;16.13;59.35
49827;BME280;35715;51.570;6.036;2022-08-06T00:49:20;102444.84;;;16.04;59.69
49827;BME280;35715;51.570;6.036;2022-08-06T00:54:29;102446.06;;;15.97;60.25
49827;BME280;35715;51.570;6.036;2022-08-06T00:56:55;102460.81;;;15.96;60.38
49827;BME280;35715;51.570;6.036;2022-08-06T00:59:20;102457.41;;;15.98;60.33
49827;BME280;35715;51.570;6.036;2022-08-06T01:01:45;102467.00;;;15.99;60.34
49827;BME280;35715;51.570;6.036;2022-08-06T01:04:11;102466.13;;;15.98;60.58
49827;BME280;35715;51.570;6.036;2022-08-06T01:06:36;102464.31;;;15.97;60.03
49827;BME280;35715;51.570;6.036;2022-08-06T01:09:20;102467.41;;;15.91;60.63
49827;BME280;35715;51.570;6.036;2022-08-06T01:11:46;102461.84;;;15.87;60.50
49827;BME280;35715;51.570;6.036;2022-08-06T01:14:11;102477.47;;;15.87;60.84
49827;BME280;35715;51.570;6.036;2022-08-06T01:16:47;102474.66;;;15.84;60.83
49827;BME280;35715;51.570;6.036;2022-08-06T01:19:26;102480.63;;;15.83;60.82
49827;BME280;35715;51.570;6.036;2022-08-06T01:30:32;102486.53;;;15.80;61.31
49827;BME280;35715;51.570;6.036;2022-08-06T01:33:09;102481.97;;;15.77;61.49
49827;BME280;35715;51.570;6.036;2022-08-06T01:35:39;102491.47;;;15.77;61.39
49827;BME280;35715;51.570;6.036;2022-08-06T01:38:08;102493.97;;;15.75;61.24
49827;BME280;35715;51.570;6.036;2022-08-06T01:40:37;102491.91;;;15.71;61.11
49827;BME280;35715;51.570;6.036;2022-08-06T01:43:05;102496.91;;;15.68;61.44
49827;BME280;35715;51.570;6.036;2022-08-06T01:45:50;102496.44;;;15.62;61.59
49827;BME280;35715;51.570;6.036;2022-08-06T01:48:20;102489.00;;;15.55;61.92
49827;BME280;35715;51.570;6.036;2022-08-06T01:50:49;102496.56;;;15.52;62.14
49827;BME280;35715;51.570;6.036;2022-08-06T01:53:17;102494.88;;;15.52;62.02
49827;BME280;35715;51.570;6.036;2022-08-06T01:55:49;102496.56;;;15.52;62.09
49827;BME280;35715;51.570;6.036;2022-08-06T01:58:37;102502.56;;;15.51;62.19
49827;BME280;35715;51.570;6.036;2022-08-06T02:01:10;102500.97;;;15.53;61.90
49827;BME280;35715;51.570;6.036;2022-08-06T02:03:49;102499.97;;;15.51;62.18
49827;BME280;35715;51.570;6.036;2022-08-06T02:06:26;102505.94;;;15.50;62.08
49827;BME280;35715;51.570;6.036;2022-08-06T02:08:53;102501.63;;;15.50;62.35
49827;BME280;35715;51.570;6.036;2022-08-06T02:11:19;102508.56;;;15.50;62.27
49827;BME280;35715;51.570;6.036;2022-08-06T02:13:46;102499.75;;;15.48;62.40
49827;BME280;35715;51.570;6.036;2022-08-06T02:16:37;102501.31;;;15.46;62.53
49827;BME280;35715;51.570;6.036;2022-08-06T02:19:05;102501.19;;;15.44;62.43
49827;BME280;35715;51.570;6.036;2022-08-06T02:21:34;102493.28;;;15.42;62.49
49827;BME280;35715;51.570;6.036;2022-08-06T02:24:05;102495.66;;;15.39;62.60
49827;BME280;35715;51.570;6.036;2022-08-06T02:29:07;102504.25;;;15.26;62.49
49827;BME280;35715;51.570;6.036;2022-08-06T02:31:33;102502.31;;;15.24;62.79
49827;BME280;35715;51.570;6.036;2022-08-06T02:33:59;102505.56;;;15.21;62.90
49827;BME280;35715;51.570;6.036;2022-08-06T02:36:42;102504.22;;;15.15;63.27
49827;BME280;35715;51.570;6.036;2022-08-06T02:39:22;102498.91;;;15.13;63.37
49827;BME280;35715;51.570;6.036;2022-08-06T02:42:05;102509.97;;;15.11;63.52
49827;BME280;35715;51.570;6.036;2022-08-06T02:44:40;102513.50;;;15.11;63.58
49827;BME280;35715;51.570;6.036;2022-08-06T02:47:23;102516.75;;;15.08;63.94
49827;BME280;35715;51.570;6.036;2022-08-06T02:49:54;102509.72;;;15.07;63.72
49827;BME280;35715;51.570;6.036;2022-08-06T02:52:30;102508.38;;;15.01;64.15
49827;BME280;35715;51.570;6.036;2022-08-06T02:55:00;102517.72;;;14.99;64.10
49827;BME280;35715;51.570;6.036;2022-08-06T02:57:32;102517.38;;;14.94;64.02
49827;BME280;35715;51.570;6.036;2022-08-06T03:00:04;102515.34;;;14.90;64.10
49827;BME280;35715;51.570;6.036;2022-08-06T03:02:32;102508.09;;;14.86;64.31
49827;BME280;35715;51.570;6.036;2022-08-06T03:05:01;102515.41;;;14.80;64.09
49827;BME280;35715;51.570;6.036;2022-08-06T03:07:31;102515.31;;;14.78;64.37
49827;BME280;35715;51.570;6.036;2022-08-06T03:10:00;102519.22;;;14.73;64.47
49827;BME280;35715;51.570;6.036;2022-08-06T03:12:26;102521.81;;;14.73;64.65
49827;BME280;35715;51.570;6.036;2022-08-06T03:14:53;102524.28;;;14.71;64.67
49827;BME280;35715;51.570;6.036;2022-08-06T03:20:34;102521.09;;;14.64;64.96
49827;BME280;35715;51.570;6.036;2022-08-06T03:23:04;102522.53;;;14.60;65.19
49827;BME280;35715;51.570;6.036;2022-08-06T03:25:35;102518.91;;;14.58;65.03
49827;BME280;35715;51.570;6.036;2022-08-06T03:28:02;102528.25;;;14.56;65.02
49827;BME280;35715;51.570;6.036;2022-08-06T03:30:29;102528.97;;;14.53;65.44
49827;BME280;35715;51.570;6.036;2022-08-06T03:32:55;102529.06;;;14.55;65.75
49827;BME280;35715;51.570;6.036;2022-08-06T03:35:27;102542.31;;;14.58;65.32
49827;BME280;35715;51.570;6.036;2022-08-06T03:37:53;102538.78;;;14.58;65.59
49827;BME280;35715;51.570;6.036;2022-08-06T03:40:23;102543.97;;;14.58;65.55
49827;BME280;35715;51.570;6.036;2022-08-06T03:42:49;102537.75;;;14.55;65.79
49827;BME280;35715;51.570;6.036;2022-08-06T03:48:13;102546.09;;;14.51;65.75
49827;BME280;35715;51.570;6.036;2022-08-06T03:50:45;102543.50;;;14.51;65.85
49827;BME280;35715;51.570;6.036;2022-08-06T03:53:19;102544.31;;;14.50;65.93
49827;BME280;35715;51.570;6.036;2022-08-06T03:55:47;102554.81;;;14.52;66.05
49827;BME280;35715;51.570;6.036;2022-08-06T03:58:14;102550.38;;;14.51;65.90
49827;BME280;35715;51.570;6.036;2022-08-06T04:00:45;102552.88;;;14.49;66.07
49827;BME280;35715;51.570;6.036;2022-08-06T04:03:12;102558.06;;;14.49;66.03
49827;BME280;35715;51.570;6.036;2022-08-06T04:05:54;102566.50;;;14.47;66.28
49827;BME280;35715;51.570;6.036;2022-08-06T04:08:22;102563.91;;;14.47;66.19
49827;BME280;35715;51.570;6.036;2022-08-06T04:10:48;102561.44;;;14.48;66.40
49827;BME280;35715;51.570;6.036;2022-08-06T04:13:19;102563.13;;;14.48;66.28
49827;BME280;35715;51.570;6.036;2022-08-06T04:15:45;102561.31;;;14.47;66.36
49827;BME280;35715;51.570;6.036;2022-08-06T04:18:14;102564.81;;;14.47;66.38
49827;BME280;35715;51.570;6.036;2022-08-06T04:20:42;102557.81;;;14.46;66.24
49827;BME280;35715;51.570;6.036;2022-08-06T04:23:10;102562.66;;;14.42;66.62
49827;BME280;35715;51.570;6.036;2022-08-06T04:25:40;102568.38;;;14.37;66.64
49827;BME280;35715;51.570;6.036;2022-08-06T04:28:06;102567.47;;;14.37;67.15
49827;BME280;35715;51.570;6.036;2022-08-06T04:30:33;102575.38;;;14.38;66.90
49827;BME280;35715;51.570;6.036;2022-08-06T04:33:01;102581.59;;;14.41;67.23
49827;BME280;35715;51.570;6.036;2022-08-06T04:35:28;102577.31;;;14.41;67.06
49827;BME280;35715;51.570;6.036;2022-08-06T04:37:55;102581.72;;;14.42;67.26
49827;BME280;35715;51.570;6.036;2022-08-06T04:40:21;102586.91;;;14.42;66.95
49827;BME280;35715;51.570;6.036;2022-08-06T04:42:47;102587.56;;;14.40;67.02
49827;BME280;35715;51.570;6.036;2022-08-06T04:45:13;102588.63;;;14.42;67.13
49827;BME280;35715;51.570;6.036;2022-08-06T04:47:39;102592.88;;;14.41;67.03
49827;BME280;35715;51.570;6.036;2022-08-06T04:50:05;102586.66;;;14.39;66.95
49827;BME280;35715;51.570;6.036;2022-08-06T04:52:30;102590.16;;;14.40;67.46
49827;BME280;35715;51.570;6.036;2022-08-06T04:54:56;102585.22;;;14.43;67.54
49827;BME280;35715;51.570;6.036;2022-08-06T04:57:21;102589.75;;;14.45;67.60
49827;BME280;35715;51.570;6.036;2022-08-06T04:59:47;102595.31;;;14.50;67.48
49827;BME280;35715;51.570;6.036;2022-08-06T05:02:12;102590.25;;;14.51;67.62
49827;BME280;35715;51.570;6.036;2022-08-06T05:04:38;102597.50;;;14.55;67.77
49827;BME280;35715;51.570;6.036;2022-08-06T05:07:22;102601.94;;;14.57;67.76
49827;BME280;35715;51.570;6.036;2022-08-06T05:09:49;102604.66;;;14.58;67.90
49827;BME280;35715;51.570;6.036;2022-08-06T05:12:38;102602.16;;;14.60;68.06
49827;BME280;35715;51.570;6.036;2022-08-06T05:15:15;102606.72;;;14.62;67.84
49827;BME280;35715;51.570;6.036;2022-08-06T05:17:48;102606.06;;;14.65;67.60
49827;BME280;35715;51.570;6.036;2022-08-06T05:20:19;102609.66;;;14.67;67.85
49827;BME280;35715;51.570;6.036;2022-08-06T05:22:49;102616.69;;;14.68;67.98
49827;BME280;35715;51.570;6.036;2022-08-06T05:25:17;102618.63;;;14.70;67.98
49827;BME280;35715;51.570;6.036;2022-08-06T05:27:45;102625.09;;;14.76;68.18
49827;BME280;35715;51.570;6.036;2022-08-06T05:30:11;102620.03;;;14.77;68.10
49827;BME280;35715;51.570;6.036;2022-08-06T05:32:45;102617.91;;;14.83;67.96
49827;BME280;35715;51.570;6.036;2022-08-06T05:35:11;102626.50;;;14.82;68.23
49827;BME280;35715;51.570;6.036;2022-08-06T05:37:36;102616.34;;;14.85;68.44
49827;BME280;35715;51.570;6.036;2022-08-06T05:40:03;102618.38;;;14.89;68.78
49827;BME280;35715;51.570;6.036;2022-08-06T05:42:29;102618.97;;;14.97;68.64
49827;BME280;35715;51.570;6.036;2022-08-06T05:44:54;102625.22;;;14.99;68.67
49827;BME280;35715;51.570;6.036;2022-08-06T05:47:23;102624.69;;;15.03;68.74
49827;BME280;35715;51.570;6.036;2022-08-06T05:49:53;102632.84;;;15.08;68.95
49827;BME280;35715;51.570;6.036;2022-08-06T05:52:28;102627.19;;;15.14;69.01
49827;BME280;35715;51.570;6.036;2022-08-06T05:57:39;102624.28;;;15.21;69.01
49827;BME280;35715;51.570;6.036;2022-08-06T06:00:25;102626.59;;;15.28;69.25
49827;BME280;35715;51.570;6.036;2022-08-06T06:02:53;102632.38;;;15.36;69.38
49827;BME280;35715;51.570;6.036;2022-08-06T06:05:20;102623.56;;;15.46;69.17
49827;BME280;35715;51.570;6.036;2022-08-06T06:07:48;102629.22;;;15.52;69.48
49827;BME280;35715;51.570;6.036;2022-08-06T06:10:14;102627.34;;;15.61;69.42
49827;BME280;35715;51.570;6.036;2022-08-06T06:12:41;102626.00;;;15.66;69.68
49827;BME280;35715;51.570;6.036;2022-08-06T06:15:10;102634.38;;;15.74;69.33
49827;BME280;35715;51.570;6.036;2022-08-06T06:18:01;102632.16;;;15.78;69.44
49827;BME280;35715;51.570;6.036;2022-08-06T06:21:14;102634.22;;;15.83;69.63
49827;BME280;35715;51.570;6.036;2022-08-06T06:24:16;102638.84;;;15.99;69.14
49827;BME280;35715;51.570;6.036;2022-08-06T06:27:13;102641.34;;;16.44;68.61
49827;BME280;35715;51.570;6.036;2022-08-06T06:32:56;102640.00;;;17.49;65.88
49827;BME280;35715;51.570;6.036;2022-08-06T06:35:33;102648.63;;;18.00;64.52
49827;BME280;35715;51.570;6.036;2022-08-06T06:38:18;102644.50;;;18.43;62.09
49827;BME280;35715;51.570;6.036;2022-08-06T06:46:25;102646.75;;;19.94;58.01
49827;BME280;35715;51.570;6.036;2022-08-06T06:49:00;102655.00;;;20.31;56.14
49827;BME280;35715;51.570;6.036;2022-08-06T06:51:48;102650.34;;;20.57;54.60
49827;BME280;35715;51.570;6.036;2022-08-06T06:54:26;102654.63;;;20.86;53.51
49827;BME280;35715;51.570;6.036;2022-08-06T06:56:56;102650.19;;;21.35;53.19
49827;BME280;35715;51.570;6.036;2022-08-06T06:59:28;102655.78;;;21.75;51.89
49827;BME280;35715;51.570;6.036;2022-08-06T07:01:55;102663.03;;;22.15;51.01
49827;BME280;35715;51.570;6.036;2022-08-06T07:04:24;102662.91;;;22.48;49.69
49827;BME280;35715;51.570;6.036;2022-08-06T07:06:51;102662.97;;;22.88;48.97
49827;BME280;35715;51.570;6.036;2022-08-06T07:12:05;102667.97;;;23.60;47.17
49827;BME280;35715;51.570;6.036;2022-08-06T07:17:18;102669.50;;;24.39;45.48
49827;BME280;35715;51.570;6.036;2022-08-06T07:19:46;102672.34;;;24.89;43.73
49827;BME280;35715;51.570;6.036;2022-08-06T07:22:31;102667.56;;;25.51;43.10
49827;BME280;35715;51.570;6.036;2022-08-06T07:24:59;102675.28;;;26.22;41.38
49827;BME280;35715;51.570;6.036;2022-08-06T07:27:37;102668.78;;;26.67;40.77
49827;BME280;35715;51.570;6.036;2022-08-06T07:30:03;102674.31;;;27.05;39.96
49827;BME280;35715;51.570;6.036;2022-08-06T07:32:32;102677.75;;;27.33;38.25
49827;BME280;35715;51.570;6.036;2022-08-06T07:35:06;102668.13;;;27.70;36.73
49827;BME280;35715;51.570;6.036;2022-08-06T07:37:34;102668.25;;;28.09;36.65
49827;BME280;35715;51.570;6.036;2022-08-06T07:40:02;102673.66;;;28.52;35.54
49827;BME280;35715;51.570;6.036;2022-08-06T07:42:29;102674.41;;;28.84;35.43
49827;BME280;35715;51.570;6.036;2022-08-06T07:44:59;102670.78;;;29.24;34.36
49827;BME280;35715;51.570;6.036;2022-08-06T07:47:38;102676.41;;;28.96;33.38
49827;BME280;35715;51.570;6.036;2022-08-06T07:52:50;102683.41;;;28.91;34.47
49827;BME280;35715;51.570;6.036;2022-08-06T07:55:16;102681.59;;;27.44;36.51
49827;BME280;35715;51.570;6.036;2022-08-06T07:57:45;102685.97;;;28.09;35.42
49827;BME280;35715;51.570;6.036;2022-08-06T08:00:12;102686.31;;;28.61;34.28
49827;BME280;35715;51.570;6.036;2022-08-06T08:02:38;102679.69;;;28.45;34.41
49827;BME280;35715;51.570;6.036;2022-08-06T08:05:04;102687.53;;;28.02;35.88
49827;BME280;35715;51.570;6.036;2022-08-06T08:07:49;102681.59;;;28.90;34.46
49827;BME280;35715;51.570;6.036;2022-08-06T08:10:16;102676.47;;;29.42;33.63
49827;BME280;35715;51.570;6.036;2022-08-06T08:12:43;102685.66;;;30.10;32.96
49827;BME280;35715;51.570;6.036;2022-08-06T08:15:09;102679.44;;;30.71;30.57
49827;BME280;35715;51.570;6.036;2022-08-06T08:17:35;102680.28;;;30.68;30.14
49827;BME280;35715;51.570;6.036;2022-08-06T08:20:07;102682.69;;;30.48;29.61
49827;BME280;35715;51.570;6.036;2022-08-06T08:22:34;102688.81;;;30.41;29.89
49827;BME280;35715;51.570;6.036;2022-08-06T08:24:59;102688.44;;;30.81;30.37
49827;BME280;35715;51.570;6.036;2022-08-06T08:27:25;102678.94;;;31.00;29.14
49827;BME280;35715;51.570;6.036;2022-08-06T08:29:50;102685.97;;;30.97;29.24
49827;BME280;35715;51.570;6.036;2022-08-06T08:32:17;102685.75;;;31.53;29.04
49827;BME280;35715;51.570;6.036;2022-08-06T08:34:45;102684.75;;;31.44;28.66
49827;BME280;35715;51.570;6.036;2022-08-06T08:37:11;102681.34;;;31.56;28.27
49827;BME280;35715;51.570;6.036;2022-08-06T08:39:36;102682.94;;;31.37;28.17
49827;BME280;35715;51.570;6.036;2022-08-06T08:42:26;102687.69;;;31.66;27.88
49827;BME280;35715;51.570;6.036;2022-08-06T08:44:54;102683.38;;;31.83;28.27
49827;BME280;35715;51.570;6.036;2022-08-06T08:47:25;102683.78;;;32.36;27.87
49827;BME280;35715;51.570;6.036;2022-08-06T08:49:51;102689.22;;;31.44;26.65
49827;BME280;35715;51.570;6.036;2022-08-06T08:52:32;102689.47;;;31.69;26.19
49827;BME280;35715;51.570;6.036;2022-08-06T08:55:22;102685.41;;;32.12;26.87
49827;BME280;35715;51.570;6.036;2022-08-06T08:57:50;102680.88;;;32.10;26.76
49827;BME280;35715;51.570;6.036;2022-08-06T09:00:17;102680.84;;;32.02;25.90
49827;BME280;35715;51.570;6.036;2022-08-06T09:02:42;102680.59;;;31.71;27.73
49827;BME280;35715;51.570;6.036;2022-08-06T09:05:09;102692.06;;;31.61;28.70
49827;BME280;35715;51.570;6.036;2022-08-06T09:07:35;102692.22;;;31.81;27.93
49827;BME280;35715;51.570;6.036;2022-08-06T09:10:05;102695.38;;;32.41;26.96
49827;BME280;35715;51.570;6.036;2022-08-06T09:12:32;102696.56;;;32.94;26.17
49827;BME280;35715;51.570;6.036;2022-08-06T09:14:58;102696.47;;;32.72;25.57
49827;BME280;35715;51.570;6.036;2022-08-06T09:17:33;102694.94;;;31.85;25.69
49827;BME280;35715;51.570;6.036;2022-08-06T09:19:59;102705.91;;;32.15;26.89
49827;BME280;35715;51.570;6.036;2022-08-06T09:22:24;102701.50;;;32.23;25.71
49827;BME280;35715;51.570;6.036;2022-08-06T09:24:49;102702.47;;;31.36;25.58
49827;BME280;35715;51.570;6.036;2022-08-06T09:27:34;102699.06;;;31.51;26.44
49827;BME280;35715;51.570;6.036;2022-08-06T09:30:05;102700.53;;;32.10;25.61
49827;BME280;35715;51.570;6.036;2022-08-06T09:32:45;102701.19;;;31.86;24.55
49827;BME280;35715;51.570;6.036;2022-08-06T09:35:28;102709.34;;;31.17;26.97
49827;BME280;35715;51.570;6.036;2022-08-06T09:38:04;102701.06;;;31.71;26.20
49827;BME280;35715;51.570;6.036;2022-08-06T09:40:30;102709.13;;;31.78;26.52
49827;BME280;35715;51.570;6.036;2022-08-06T09:42:55;102701.44;;;32.14;26.33
49827;BME280;35715;51.570;6.036;2022-08-06T09:45:29;102701.50;;;32.26;24.76
49827;BME280;35715;51.570;6.036;2022-08-06T09:48:06;102706.56;;;33.49;24.37
49827;BME280;35715;51.570;6.036;2022-08-06T09:50:49;102712.66;;;33.17;23.02
49827;BME280;35715;51.570;6.036;2022-08-06T09:53:15;102715.44;;;31.90;25.04
49827;BME280;35715;51.570;6.036;2022-08-06T09:55:46;102715.91;;;32.45;26.13
49827;BME280;35715;51.570;6.036;2022-08-06T09:58:11;102707.22;;;32.83;24.66
49827;BME280;35715;51.570;6.036;2022-08-06T10:00:37;102711.00;;;33.52;24.78
49827;BME280;35715;51.570;6.036;2022-08-06T10:03:06;102715.53;;;33.73;24.08
49827;BME280;35715;51.570;6.036;2022-08-06T10:05:33;102714.59;;;34.51;22.94
49827;BME280;35715;51.570;6.036;2022-08-06T10:08:10;102711.91;;;34.43;21.61
49827;BME280;35715;51.570;6.036;2022-08-06T10:13:24;102709.25;;;33.69;22.10
49827;BME280;35715;51.570;6.036;2022-08-06T10:15:52;102701.22;;;33.51;23.03
49827;BME280;35715;51.570;6.036;2022-08-06T10:18:41;102703.03;;;33.83;22.54
49827;BME280;35715;51.570;6.036;2022-08-06T10:21:12;102688.56;;;34.72;22.76
49827;BME280;35715;51.570;6.036;2022-08-06T10:23:39;102711.94;;;33.94;23.22
49827;BME280;35715;51.570;6.036;2022-08-06T10:26:10;102699.44;;;34.24;23.58
49827;BME280;35715;51.570;6.036;2022-08-06T10:28:37;102697.28;;;35.22;23.73
49827;BME280;35715;51.570;6.036;2022-08-06T10:31:06;102693.75;;;35.19;21.78
49827;BME280;35715;51.570;6.036;2022-08-06T10:33:43;102692.91;;;35.11;22.13
49827;BME280;35715;51.570;6.036;2022-08-06T10:36:14;102693.00;;;34.90;21.49
49827;BME280;35715;51.570;6.036;2022-08-06T10:38:43;102686.78;;;34.75;21.69
49827;BME280;35715;51.570;6.036;2022-08-06T10:41:12;102689.44;;;34.88;21.83
49827;BME280;35715;51.570;6.036;2022-08-06T10:43:38;102674.91;;;35.26;21.94
49827;BME280;35715;51.570;6.036;2022-08-06T10:46:10;102680.13;;;35.50;21.33
49827;BME280;35715;51.570;6.036;2022-08-06T10:48:39;102674.53;;;35.83;22.04
49827;BME280;35715;51.570;6.036;2022-08-06T10:51:07;102668.28;;;35.75;21.45
49827;BME280;35715;51.570;6.036;2022-08-06T10:53:34;102679.28;;;35.45;21.85
49827;BME280;35715;51.570;6.036;2022-08-06T10:56:01;102673.75;;;35.64;22.17
49827;BME280;35715;51.570;6.036;2022-08-06T10:58:29;102667.00;;;35.06;21.16
49827;BME280;35715;51.570;6.036;2022-08-06T11:00:56;102677.13;;;34.25;23.12
49827;BME280;35715;51.570;6.036;2022-08-06T11:03:27;102681.56;;;33.67;22.66
49827;BME280;35715;51.570;6.036;2022-08-06T11:06:03;102667.13;;;32.88;22.17
49827;BME280;35715;51.570;6.036;2022-08-06T11:08:42;102669.41;;;32.18;23.81
49827;BME280;35715;51.570;6.036;2022-08-06T11:14:12;102663.03;;;31.07;25.41
49827;BME280;35715;51.570;6.036;2022-08-06T11:16:52;102661.59;;;30.65;25.44
49827;BME280;35715;51.570;6.036;2022-08-06T11:19:18;102668.28;;;30.37;24.81
49827;BME280;35715;51.570;6.036;2022-08-06T11:21:45;102670.66;;;30.17;26.26
49827;BME280;35715;51.570;6.036;2022-08-06T11:24:12;102658.63;;;30.40;26.27
49827;BME280;35715;51.570;6.036;2022-08-06T11:26:44;102666.88;;;30.02;26.44
49827;BME280;35715;51.570;6.036;2022-08-06T11:29:12;102668.09;;;30.23;27.65
49827;BME280;35715;51.570;6.036;2022-08-06T11:34:09;102665.06;;;29.49;27.22
49827;BME280;35715;51.570;6.036;2022-08-06T11:36:53;102651.09;;;29.15;27.46
49827;BME280;35715;51.570;6.036;2022-08-06T11:39:21;102658.38;;;29.23;27.31
49827;BME280;35715;51.570;6.036;2022-08-06T11:41:54;102658.81;;;29.47;25.79
49827;BME280;35715;51.570;6.036;2022-08-06T11:44:22;102651.31;;;29.25;25.67
49827;BME280;35715;51.570;6.036;2022-08-06T11:47:16;102654.63;;;29.14;27.14
49827;BME280;35715;51.570;6.036;2022-08-06T11:49:47;102654.16;;;29.34;26.77
49827;BME280;35715;51.570;6.036;2022-08-06T11:55:04;102651.91;;;29.11;25.24
49827;BME280;35715;51.570;6.036;2022-08-06T11:57:30;102653.38;;;29.40;26.08
49827;BME280;35715;51.570;6.036;2022-08-06T12:05:51;102638.53;;;30.04;25.09
49827;BME280;35715;51.570;6.036;2022-08-06T12:08:18;102647.34;;;30.02;24.96
49827;BME280;35715;51.570;6.036;2022-08-06T12:11:23;102638.16;;;29.81;25.05
49827;BME280;35715;51.570;6.036;2022-08-06T12:13:49;102636.50;;;29.89;26.69
49827;BME280;35715;51.570;6.036;2022-08-06T12:16:29;102636.41;;;29.83;25.82
49827;BME280;35715;51.570;6.036;2022-08-06T12:18:55;102640.38;;;29.58;25.53
49827;BME280;35715;51.570;6.036;2022-08-06T12:21:21;102635.25;;;30.22;26.52
49827;BME280;35715;51.570;6.036;2022-08-06T12:23:49;102623.00;;;31.03;25.16
49827;BME280;35715;51.570;6.036;2022-08-06T12:26:15;102632.47;;;31.62;24.05
49827;BME280;35715;51.570;6.036;2022-08-06T12:28:41;102621.41;;;32.32;23.31
49827;BME280;35715;51.570;6.036;2022-08-06T12:31:07;102621.53;;;32.54;22.32
49827;BME280;35715;51.570;6.036;2022-08-06T12:33:40;102619.84;;;32.82;22.99
49827;BME280;35715;51.570;6.036;2022-08-06T12:36:07;102624.50;;;31.63;23.86
49827;BME280;35715;51.570;6.036;2022-08-06T12:38:32;102618.09;;;30.66;24.56
49827;BME280;35715;51.570;6.036;2022-08-06T12:41:04;102615.94;;;30.39;25.62
49827;BME280;35715;51.570;6.036;2022-08-06T12:43:34;102623.00;;;31.03;24.83
49827;BME280;35715;51.570;6.036;2022-08-06T12:46:06;102621.03;;;31.74;23.33
49827;BME280;35715;51.570;6.036;2022-08-06T12:48:34;102616.00;;;32.22;23.12
49827;BME280;35715;51.570;6.036;2022-08-06T12:51:11;102617.06;;;32.56;22.38
49827;BME280;35715;51.570;6.036;2022-08-06T12:53:53;102608.72;;;31.97;23.32
49827;BME280;35715;51.570;6.036;2022-08-06T12:56:23;102606.03;;;31.97;23.30
49827;BME280;35715;51.570;6.036;2022-08-06T12:58:51;102605.09;;;31.89;24.15
49827;BME280;35715;51.570;6.036;2022-08-06T13:01:21;102598.28;;;32.33;23.01
49827;BME280;35715;51.570;6.036;2022-08-06T13:03:52;102603.81;;;32.78;22.14
49827;BME280;35715;51.570;6.036;2022-08-06T13:06:24;102594.91;;;32.79;23.03
49827;BME280;35715;51.570;6.036;2022-08-06T13:08:51;102599.06;;;32.16;23.02
49827;BME280;35715;51.570;6.036;2022-08-06T13:11:16;102595.53;;;32.16;22.50
49827;BME280;35715;51.570;6.036;2022-08-06T13:13:47;102591.91;;;31.06;22.99
49827;BME280;35715;51.570;6.036;2022-08-06T13:16:17;102596.19;;;30.90;24.14
49827;BME280;35715;51.570;6.036;2022-08-06T13:19:02;102588.38;;;31.07;25.22
49827;BME280;35715;51.570;6.036;2022-08-06T13:21:30;102596.97;;;31.71;23.92
49827;BME280;35715;51.570;6.036;2022-08-06T13:23:55;102592.31;;;31.46;23.98
49827;BME280;35715;51.570;6.036;2022-08-06T13:26:32;102596.59;;;31.32;24.12
49827;BME280;35715;51.570;6.036;2022-08-06T13:31:43;102591.50;;;30.69;24.48
49827;BME280;35715;51.570;6.036;2022-08-06T13:34:11;102590.63;;;30.72;24.66
49827;BME280;35715;51.570;6.036;2022-08-06T13:36:42;102601.53;;;30.24;24.48
49827;BME280;35715;51.570;6.036;2022-08-06T13:41:59;102595.44;;;30.33;25.98
49827;BME280;35715;51.570;6.036;2022-08-06T13:44:27;102596.94;;;30.78;26.43
49827;BME280;35715;51.570;6.036;2022-08-06T13:47:04;102591.91;;;30.34;24.49
49827;BME280;35715;51.570;6.036;2022-08-06T13:49:30;102588.41;;;30.38;24.73
49827;BME280;35715;51.570;6.036;2022-08-06T13:51:56;102594.28;;;30.82;25.47
49827;BME280;35715;51.570;6.036;2022-08-06T13:54:25;102585.75;;;31.12;24.68
49827;BME280;35715;51.570;6.036;2022-08-06T13:56:54;102579.78;;;30.58;27.18
49827;BME280;35715;51.570;6.036;2022-08-06T13:59:22;102586.78;;;30.47;25.80
49827;BME280;35715;51.570;6.036;2022-08-06T14:01:49;102583.78;;;30.25;26.52
49827;BME280;35715;51.570;6.036;2022-08-06T14:04:16;102583.88;;;30.31;25.25
49827;BME280;35715;51.570;6.036;2022-08-06T14:06:46;102576.69;;;30.24;25.75
49827;BME280;35715;51.570;6.036;2022-08-06T14:09:13;102575.91;;;30.31;25.45